Whitlash, Montana
Current Conditions -  °F | °C
As of 9:56 AM on Friday 31 Oct 2014 (Local Time) from KCTB Reporting Station
Haze Haze  
Wind Chill: 34°   Ceiling: Unl
Heat Index: 34°   Visibility: 6mi
Dew Point: 32°   Wind: 0mph
Humidity: 92%   Direction: NA
Pressure: 29.8"   Gusts: NA
Location:  48.91°N, 111.25°W
Report Text: KCTB 311556Z AUTO 00000KT 6SM BR CLR 01/00 A2980 RMK AO2 SLP112 T00110000
Loading
Personal Weather Stations






























Interactive Weather Map
Tropical Storm Tracking
New forecast layout! Learn more

10-Day Weather Forecast

Advertisements
Track Severe Weather on mobile